sensor_id;sensor_type;location;lat;lon;timestamp;P1;durP1;ratioP1;P2;durP2;ratioP2
32790;SDS011;19143;59.322;14.502;2023-06-19T00:00:44;6.40;;;5.60;;
32790;SDS011;19143;59.322;14.502;2023-06-19T00:03:10;5.67;;;5.13;;
32790;SDS011;19143;59.322;14.502;2023-06-19T00:05:37;5.73;;;5.30;;
32790;SDS011;19143;59.322;14.502;2023-06-19T00:08:04;5.07;;;4.77;;
32790;SDS011;19143;59.322;14.502;2023-06-19T00:10:31;5.20;;;4.90;;
32790;SDS011;19143;59.322;14.502;2023-06-19T00:12:58;6.03;;;5.43;;
32790;SDS011;19143;59.322;14.502;2023-06-19T00:15:25;7.30;;;5.77;;
32790;SDS011;19143;59.322;14.502;2023-06-19T00:17:55;8.70;;;7.20;;
32790;SDS011;19143;59.322;14.502;2023-06-19T00:20:23;14.13;;;10.37;;
32790;SDS011;19143;59.322;14.502;2023-06-19T00:22:50;19.40;;;12.23;;
32790;SDS011;19143;59.322;14.502;2023-06-19T00:25:17;21.07;;;13.50;;
32790;SDS011;19143;59.322;14.502;2023-06-19T00:27:44;21.47;;;13.93;;
32790;SDS011;19143;59.322;14.502;2023-06-19T00:30:11;21.83;;;15.17;;
32790;SDS011;19143;59.322;14.502;2023-06-19T00:32:38;26.87;;;16.20;;
32790;SDS011;19143;59.322;14.502;2023-06-19T00:35:13;25.73;;;17.27;;
32790;SDS011;19143;59.322;14.502;2023-06-19T00:37:40;24.50;;;16.80;;
32790;SDS011;19143;59.322;14.502;2023-06-19T00:40:10;28.70;;;16.80;;
32790;SDS011;19143;59.322;14.502;2023-06-19T00:42:39;26.87;;;17.17;;
32790;SDS011;19143;59.322;14.502;2023-06-19T00:45:05;26.43;;;17.00;;
32790;SDS011;19143;59.322;14.502;2023-06-19T00:47:33;23.20;;;17.23;;
32790;SDS011;19143;59.322;14.502;2023-06-19T00:50:00;25.10;;;17.37;;
32790;SDS011;19143;59.322;14.502;2023-06-19T00:52:29;27.03;;;17.30;;
32790;SDS011;19143;59.322;14.502;2023-06-19T00:54:56;24.40;;;16.57;;
32790;SDS011;19143;59.322;14.502;2023-06-19T00:57:22;24.90;;;17.13;;
32790;SDS011;19143;59.322;14.502;2023-06-19T00:59:49;26.63;;;16.50;;
32790;SDS011;19143;59.322;14.502;2023-06-19T01:02:18;26.47;;;17.37;;
32790;SDS011;19143;59.322;14.502;2023-06-19T01:04:48;22.67;;;16.43;;
32790;SDS011;19143;59.322;14.502;2023-06-19T01:07:17;22.53;;;16.93;;
32790;SDS011;19143;59.322;14.502;2023-06-19T01:09:48;27.87;;;17.93;;
32790;SDS011;19143;59.322;14.502;2023-06-19T01:12:18;24.70;;;17.13;;
32790;SDS011;19143;59.322;14.502;2023-06-19T01:14:48;23.63;;;17.30;;
32790;SDS011;19143;59.322;14.502;2023-06-19T01:17:16;26.00;;;15.63;;
32790;SDS011;19143;59.322;14.502;2023-06-19T01:19:43;31.30;;;17.73;;
32790;SDS011;19143;59.322;14.502;2023-06-19T01:22:11;27.50;;;17.67;;
32790;SDS011;19143;59.322;14.502;2023-06-19T01:24:38;27.73;;;16.80;;
32790;SDS011;19143;59.322;14.502;2023-06-19T01:27:04;27.87;;;17.20;;
32790;SDS011;19143;59.322;14.502;2023-06-19T01:29:31;33.23;;;16.50;;
32790;SDS011;19143;59.322;14.502;2023-06-19T01:31:59;30.63;;;17.43;;
32790;SDS011;19143;59.322;14.502;2023-06-19T01:34:27;25.30;;;15.80;;
32790;SDS011;19143;59.322;14.502;2023-06-19T01:36:55;26.37;;;16.00;;
32790;SDS011;19143;59.322;14.502;2023-06-19T01:39:24;22.77;;;15.57;;
32790;SDS011;19143;59.322;14.502;2023-06-19T01:41:52;28.43;;;15.70;;
32790;SDS011;19143;59.322;14.502;2023-06-19T01:44:19;25.77;;;15.67;;
32790;SDS011;19143;59.322;14.502;2023-06-19T01:46:47;21.90;;;14.70;;
32790;SDS011;19143;59.322;14.502;2023-06-19T01:49:13;21.20;;;14.63;;
32790;SDS011;19143;59.322;14.502;2023-06-19T01:51:40;23.47;;;14.30;;
32790;SDS011;19143;59.322;14.502;2023-06-19T01:54:06;22.37;;;14.33;;
32790;SDS011;19143;59.322;14.502;2023-06-19T01:56:35;21.33;;;13.80;;
32790;SDS011;19143;59.322;14.502;2023-06-19T01:59:02;23.70;;;13.53;;
32790;SDS011;19143;59.322;14.502;2023-06-19T02:01:28;22.33;;;13.53;;
32790;SDS011;19143;59.322;14.502;2023-06-19T02:03:55;23.30;;;13.77;;
32790;SDS011;19143;59.322;14.502;2023-06-19T02:06:22;19.20;;;13.67;;
32790;SDS011;19143;59.322;14.502;2023-06-19T02:08:48;27.53;;;13.67;;
32790;SDS011;19143;59.322;14.502;2023-06-19T02:11:15;29.83;;;13.70;;
32790;SDS011;19143;59.322;14.502;2023-06-19T02:13:43;22.27;;;14.13;;
32790;SDS011;19143;59.322;14.502;2023-06-19T02:16:10;18.83;;;13.40;;
32790;SDS011;19143;59.322;14.502;2023-06-19T02:18:36;19.13;;;13.13;;
32790;SDS011;19143;59.322;14.502;2023-06-19T02:21:03;22.90;;;13.03;;
32790;SDS011;19143;59.322;14.502;2023-06-19T02:23:30;22.23;;;14.13;;
32790;SDS011;19143;59.322;14.502;2023-06-19T02:25:56;21.50;;;12.90;;
32790;SDS011;19143;59.322;14.502;2023-06-19T02:28:23;22.37;;;12.93;;
32790;SDS011;19143;59.322;14.502;2023-06-19T02:30:52;18.10;;;12.20;;
32790;SDS011;19143;59.322;14.502;2023-06-19T02:33:18;16.23;;;11.87;;
32790;SDS011;19143;59.322;14.502;2023-06-19T02:35:45;20.07;;;11.93;;
32790;SDS011;19143;59.322;14.502;2023-06-19T02:38:12;15.93;;;12.30;;
32790;SDS011;19143;59.322;14.502;2023-06-19T02:40:39;16.27;;;12.10;;
32790;SDS011;19143;59.322;14.502;2023-06-19T02:43:06;15.37;;;10.87;;
32790;SDS011;19143;59.322;14.502;2023-06-19T02:45:32;14.03;;;10.90;;
32790;SDS011;19143;59.322;14.502;2023-06-19T02:48:01;15.60;;;10.97;;
32790;SDS011;19143;59.322;14.502;2023-06-19T02:50:27;18.70;;;11.37;;
32790;SDS011;19143;59.322;14.502;2023-06-19T02:52:54;14.33;;;11.03;;
32790;SDS011;19143;59.322;14.502;2023-06-19T02:55:20;15.90;;;10.27;;
32790;SDS011;19143;59.322;14.502;2023-06-19T02:57:47;13.93;;;10.63;;
32790;SDS011;19143;59.322;14.502;2023-06-19T03:00:14;17.77;;;11.23;;
32790;SDS011;19143;59.322;14.502;2023-06-19T03:02:42;18.37;;;11.13;;
32790;SDS011;19143;59.322;14.502;2023-06-19T03:05:12;19.10;;;11.77;;
32790;SDS011;19143;59.322;14.502;2023-06-19T03:07:39;16.50;;;11.53;;
32790;SDS011;19143;59.322;14.502;2023-06-19T03:10:06;15.33;;;11.50;;
32790;SDS011;19143;59.322;14.502;2023-06-19T03:12:34;16.37;;;12.43;;
32790;SDS011;19143;59.322;14.502;2023-06-19T03:15:00;15.13;;;11.13;;
32790;SDS011;19143;59.322;14.502;2023-06-19T03:17:27;16.47;;;12.17;;
32790;SDS011;19143;59.322;14.502;2023-06-19T03:19:53;20.77;;;11.93;;
32790;SDS011;19143;59.322;14.502;2023-06-19T03:22:23;20.97;;;12.63;;
32790;SDS011;19143;59.322;14.502;2023-06-19T03:24:49;22.47;;;12.27;;
32790;SDS011;19143;59.322;14.502;2023-06-19T03:27:17;16.77;;;11.37;;
32790;SDS011;19143;59.322;14.502;2023-06-19T03:29:43;17.43;;;11.27;;
32790;SDS011;19143;59.322;14.502;2023-06-19T03:32:10;16.30;;;12.00;;
32790;SDS011;19143;59.322;14.502;2023-06-19T03:34:37;17.63;;;11.23;;
32790;SDS011;19143;59.322;14.502;2023-06-19T03:37:04;18.30;;;11.67;;
32790;SDS011;19143;59.322;14.502;2023-06-19T03:39:32;13.37;;;10.83;;
32790;SDS011;19143;59.322;14.502;2023-06-19T03:41:58;18.70;;;11.23;;
32790;SDS011;19143;59.322;14.502;2023-06-19T03:44:25;18.37;;;11.43;;
32790;SDS011;19143;59.322;14.502;2023-06-19T03:46:52;14.83;;;10.27;;
32790;SDS011;19143;59.322;14.502;2023-06-19T03:49:18;16.43;;;11.03;;
32790;SDS011;19143;59.322;14.502;2023-06-19T03:51:45;16.40;;;11.47;;
32790;SDS011;19143;59.322;14.502;2023-06-19T03:54:11;17.40;;;11.23;;
32790;SDS011;19143;59.322;14.502;2023-06-19T03:56:39;15.13;;;11.23;;
32790;SDS011;19143;59.322;14.502;2023-06-19T03:59:06;13.27;;;10.90;;
32790;SDS011;19143;59.322;14.502;2023-06-19T04:01:33;13.17;;;10.20;;
32790;SDS011;19143;59.322;14.502;2023-06-19T04:04:06;14.17;;;10.70;;
32790;SDS011;19143;59.322;14.502;2023-06-19T04:06:33;18.53;;;11.47;;
32790;SDS011;19143;59.322;14.502;2023-06-19T04:09:00;19.57;;;11.73;;
32790;SDS011;19143;59.322;14.502;2023-06-19T04:11:26;16.13;;;11.80;;
32790;SDS011;19143;59.322;14.502;2023-06-19T04:13:54;13.23;;;10.70;;
32790;SDS011;19143;59.322;14.502;2023-06-19T04:16:21;12.87;;;10.30;;
32790;SDS011;19143;59.322;14.502;2023-06-19T04:18:47;12.60;;;10.53;;
32790;SDS011;19143;59.322;14.502;2023-06-19T04:21:14;16.57;;;10.13;;
32790;SDS011;19143;59.322;14.502;2023-06-19T04:23:41;15.20;;;10.87;;
32790;SDS011;19143;59.322;14.502;2023-06-19T04:26:07;15.03;;;10.07;;
32790;SDS011;19143;59.322;14.502;2023-06-19T04:28:34;13.47;;;10.33;;
32790;SDS011;19143;59.322;14.502;2023-06-19T04:31:10;11.73;;;10.27;;
32790;SDS011;19143;59.322;14.502;2023-06-19T04:33:37;12.07;;;9.87;;
32790;SDS011;19143;59.322;14.502;2023-06-19T04:36:05;13.93;;;9.63;;
32790;SDS011;19143;59.322;14.502;2023-06-19T04:38:32;11.27;;;9.40;;
32790;SDS011;19143;59.322;14.502;2023-06-19T04:40:58;10.17;;;9.10;;
32790;SDS011;19143;59.322;14.502;2023-06-19T04:43:38;11.60;;;9.70;;
32790;SDS011;19143;59.322;14.502;2023-06-19T04:46:06;10.67;;;9.57;;
32790;SDS011;19143;59.322;14.502;2023-06-19T04:48:34;12.33;;;9.73;;
32790;SDS011;19143;59.322;14.502;2023-06-19T04:51:01;11.57;;;9.33;;
32790;SDS011;19143;59.322;14.502;2023-06-19T04:53:28;12.30;;;9.70;;
32790;SDS011;19143;59.322;14.502;2023-06-19T04:55:57;11.07;;;9.70;;
32790;SDS011;19143;59.322;14.502;2023-06-19T04:58:24;11.57;;;8.87;;
32790;SDS011;19143;59.322;14.502;2023-06-19T05:00:51;10.00;;;8.97;;
32790;SDS011;19143;59.322;14.502;2023-06-19T05:03:19;11.17;;;8.63;;
32790;SDS011;19143;59.322;14.502;2023-06-19T05:05:48;9.33;;;8.30;;
32790;SDS011;19143;59.322;14.502;2023-06-19T05:08:15;9.67;;;8.77;;
32790;SDS011;19143;59.322;14.502;2023-06-19T05:10:42;8.80;;;7.87;;
32790;SDS011;19143;59.322;14.502;2023-06-19T05:13:08;9.43;;;8.43;;
32790;SDS011;19143;59.322;14.502;2023-06-19T05:15:35;9.83;;;8.87;;
32790;SDS011;19143;59.322;14.502;2023-06-19T05:18:02;11.03;;;8.77;;
32790;SDS011;19143;59.322;14.502;2023-06-19T05:20:29;9.77;;;8.40;;
32790;SDS011;19143;59.322;14.502;2023-06-19T05:22:58;10.70;;;8.70;;
32790;SDS011;19143;59.322;14.502;2023-06-19T05:25:24;9.33;;;8.43;;
32790;SDS011;19143;59.322;14.502;2023-06-19T05:27:53;9.47;;;8.40;;
32790;SDS011;19143;59.322;14.502;2023-06-19T05:30:20;8.20;;;7.50;;
32790;SDS011;19143;59.322;14.502;2023-06-19T05:32:47;8.73;;;7.90;;
32790;SDS011;19143;59.322;14.502;2023-06-19T05:35:13;8.47;;;7.67;;
32790;SDS011;19143;59.322;14.502;2023-06-19T05:37:40;9.00;;;8.10;;
32790;SDS011;19143;59.322;14.502;2023-06-19T05:40:10;9.57;;;8.43;;
32790;SDS011;19143;59.322;14.502;2023-06-19T05:42:40;12.73;;;8.90;;
32790;SDS011;19143;59.322;14.502;2023-06-19T05:45:07;9.37;;;8.43;;
32790;SDS011;19143;59.322;14.502;2023-06-19T05:47:34;10.30;;;8.97;;
32790;SDS011;19143;59.322;14.502;2023-06-19T05:50:00;9.90;;;8.90;;
32790;SDS011;19143;59.322;14.502;2023-06-19T05:52:30;12.27;;;9.40;;
32790;SDS011;19143;59.322;14.502;2023-06-19T05:54:57;12.27;;;9.03;;
32790;SDS011;19143;59.322;14.502;2023-06-19T05:57:26;11.00;;;9.20;;
32790;SDS011;19143;59.322;14.502;2023-06-19T05:59:57;10.17;;;9.17;;
32790;SDS011;19143;59.322;14.502;2023-06-19T06:02:23;11.90;;;9.67;;
32790;SDS011;19143;59.322;14.502;2023-06-19T06:04:53;11.60;;;10.37;;
32790;SDS011;19143;59.322;14.502;2023-06-19T06:07:21;11.80;;;10.00;;
32790;SDS011;19143;59.322;14.502;2023-06-19T06:09:48;13.07;;;10.87;;
32790;SDS011;19143;59.322;14.502;2023-06-19T06:12:15;13.40;;;10.00;;
32790;SDS011;19143;59.322;14.502;2023-06-19T06:14:45;11.43;;;9.77;;
32790;SDS011;19143;59.322;14.502;2023-06-19T06:17:12;11.57;;;10.30;;
32790;SDS011;19143;59.322;14.502;2023-06-19T06:19:39;11.33;;;10.17;;
32790;SDS011;19143;59.322;14.502;2023-06-19T06:22:06;13.27;;;10.90;;
32790;SDS011;19143;59.322;14.502;2023-06-19T06:24:32;12.80;;;10.80;;
32790;SDS011;19143;59.322;14.502;2023-06-19T06:27:00;15.63;;;11.77;;
32790;SDS011;19143;59.322;14.502;2023-06-19T06:29:27;15.30;;;12.07;;
32790;SDS011;19143;59.322;14.502;2023-06-19T06:32:03;15.87;;;12.30;;
32790;SDS011;19143;59.322;14.502;2023-06-19T06:34:31;18.67;;;13.80;;
32790;SDS011;19143;59.322;14.502;2023-06-19T06:36:58;19.23;;;13.27;;
32790;SDS011;19143;59.322;14.502;2023-06-19T06:39:25;20.03;;;14.17;;
32790;SDS011;19143;59.322;14.502;2023-06-19T06:41:51;20.77;;;13.63;;
32790;SDS011;19143;59.322;14.502;2023-06-19T06:44:18;17.73;;;14.70;;
32790;SDS011;19143;59.322;14.502;2023-06-19T06:46:45;21.53;;;15.40;;
32790;SDS011;19143;59.322;14.502;2023-06-19T06:49:13;18.67;;;15.30;;
32790;SDS011;19143;59.322;14.502;2023-06-19T06:51:41;21.80;;;15.20;;
32790;SDS011;19143;59.322;14.502;2023-06-19T06:54:07;21.23;;;15.63;;
32790;SDS011;19143;59.322;14.502;2023-06-19T06:56:35;26.77;;;16.90;;
32790;SDS011;19143;59.322;14.502;2023-06-19T06:59:01;22.93;;;16.73;;
32790;SDS011;19143;59.322;14.502;2023-06-19T07:01:28;22.00;;;15.73;;
32790;SDS011;19143;59.322;14.502;2023-06-19T07:03:55;23.73;;;16.50;;
32790;SDS011;19143;59.322;14.502;2023-06-19T07:06:23;22.30;;;17.13;;
32790;SDS011;19143;59.322;14.502;2023-06-19T07:08:49;24.57;;;16.03;;
32790;SDS011;19143;59.322;14.502;2023-06-19T07:11:16;23.17;;;16.70;;
32790;SDS011;19143;59.322;14.502;2023-06-19T07:13:42;26.07;;;16.87;;
32790;SDS011;19143;59.322;14.502;2023-06-19T07:16:09;22.40;;;16.67;;
32790;SDS011;19143;59.322;14.502;2023-06-19T07:18:35;21.73;;;16.07;;
32790;SDS011;19143;59.322;14.502;2023-06-19T07:21:03;23.10;;;16.40;;
32790;SDS011;19143;59.322;14.502;2023-06-19T07:23:34;23.63;;;16.00;;
32790;SDS011;19143;59.322;14.502;2023-06-19T07:26:01;25.90;;;16.60;;
32790;SDS011;19143;59.322;14.502;2023-06-19T07:28:34;24.33;;;17.13;;
32790;SDS011;19143;59.322;14.502;2023-06-19T07:31:01;26.43;;;17.63;;
32790;SDS011;19143;59.322;14.502;2023-06-19T07:33:28;28.47;;;17.70;;
32790;SDS011;19143;59.322;14.502;2023-06-19T07:35:55;26.83;;;17.90;;
32790;SDS011;19143;59.322;14.502;2023-06-19T07:38:22;25.37;;;17.97;;
32790;SDS011;19143;59.322;14.502;2023-06-19T07:40:50;28.63;;;18.03;;
32790;SDS011;19143;59.322;14.502;2023-06-19T07:43:17;27.47;;;17.13;;
32790;SDS011;19143;59.322;14.502;2023-06-19T07:45:44;24.57;;;16.73;;
32790;SDS011;19143;59.322;14.502;2023-06-19T07:48:10;27.57;;;15.93;;
32790;SDS011;19143;59.322;14.502;2023-06-19T07:50:37;20.20;;;14.97;;
32790;SDS011;19143;59.322;14.502;2023-06-19T07:53:04;20.60;;;16.03;;
32790;SDS011;19143;59.322;14.502;2023-06-19T07:55:30;22.07;;;15.87;;
32790;SDS011;19143;59.322;14.502;2023-06-19T07:57:59;20.97;;;15.73;;
32790;SDS011;19143;59.322;14.502;2023-06-19T08:00:25;23.30;;;15.30;;
32790;SDS011;19143;59.322;14.502;2023-06-19T08:02:52;25.83;;;16.57;;
32790;SDS011;19143;59.322;14.502;2023-06-19T08:05:18;20.30;;;14.87;;
32790;SDS011;19143;59.322;14.502;2023-06-19T08:07:45;20.53;;;15.20;;
32790;SDS011;19143;59.322;14.502;2023-06-19T08:10:12;19.10;;;14.93;;
32790;SDS011;19143;59.322;14.502;2023-06-19T08:12:40;18.20;;;13.90;;
32790;SDS011;19143;59.322;14.502;2023-06-19T08:15:09;20.63;;;14.20;;
32790;SDS011;19143;59.322;14.502;2023-06-19T08:17:35;26.83;;;14.50;;
32790;SDS011;19143;59.322;14.502;2023-06-19T08:20:02;21.20;;;14.30;;
32790;SDS011;19143;59.322;14.502;2023-06-19T08:22:30;21.27;;;14.13;;
32790;SDS011;19143;59.322;14.502;2023-06-19T08:24:57;20.97;;;14.10;;
32790;SDS011;19143;59.322;14.502;2023-06-19T08:27:23;18.77;;;14.73;;
32790;SDS011;19143;59.322;14.502;2023-06-19T08:29:50;19.23;;;14.53;;
32790;SDS011;19143;59.322;14.502;2023-06-19T08:32:18;18.80;;;13.97;;
32790;SDS011;19143;59.322;14.502;2023-06-19T08:34:45;20.20;;;14.83;;
32790;SDS011;19143;59.322;14.502;2023-06-19T08:37:12;21.83;;;13.73;;
32790;SDS011;19143;59.322;14.502;2023-06-19T08:39:38;16.67;;;13.57;;
32790;SDS011;19143;59.322;14.502;2023-06-19T08:42:06;28.73;;;14.77;;
32790;SDS011;19143;59.322;14.502;2023-06-19T08:44:33;20.23;;;14.73;;
32790;SDS011;19143;59.322;14.502;2023-06-19T08:47:01;19.77;;;15.30;;
32790;SDS011;19143;59.322;14.502;2023-06-19T08:49:30;18.97;;;15.00;;
32790;SDS011;19143;59.322;14.502;2023-06-19T08:51:58;23.57;;;15.30;;
32790;SDS011;19143;59.322;14.502;2023-06-19T08:54:25;19.20;;;14.83;;
32790;SDS011;19143;59.322;14.502;2023-06-19T08:56:51;19.47;;;14.73;;
32790;SDS011;19143;59.322;14.502;2023-06-19T08:59:19;18.13;;;14.60;;
32790;SDS011;19143;59.322;14.502;2023-06-19T09:01:47;21.67;;;15.57;;
32790;SDS011;19143;59.322;14.502;2023-06-19T09:04:17;20.20;;;15.37;;
32790;SDS011;19143;59.322;14.502;2023-06-19T09:06:51;24.10;;;15.20;;
32790;SDS011;19143;59.322;14.502;2023-06-19T09:09:18;17.60;;;14.20;;
32790;SDS011;19143;59.322;14.502;2023-06-19T09:11:56;19.77;;;13.63;;
32790;SDS011;19143;59.322;14.502;2023-06-19T09:14:23;19.33;;;14.90;;
32790;SDS011;19143;59.322;14.502;2023-06-19T09:16:50;22.57;;;15.00;;
32790;SDS011;19143;59.322;14.502;2023-06-19T09:19:19;20.70;;;14.87;;
32790;SDS011;19143;59.322;14.502;2023-06-19T09:21:46;16.87;;;13.57;;
32790;SDS011;19143;59.322;14.502;2023-06-19T09:24:14;20.20;;;14.60;;
32790;SDS011;19143;59.322;14.502;2023-06-19T09:26:41;21.53;;;14.93;;
32790;SDS011;19143;59.322;14.502;2023-06-19T09:29:11;20.30;;;14.63;;
32790;SDS011;19143;59.322;14.502;2023-06-19T09:31:37;20.10;;;13.30;;
32790;SDS011;19143;59.322;14.502;2023-06-19T09:34:06;17.70;;;12.73;;
32790;SDS011;19143;59.322;14.502;2023-06-19T09:36:33;18.53;;;13.53;;
32790;SDS011;19143;59.322;14.502;2023-06-19T09:39:01;18.07;;;13.13;;
32790;SDS011;19143;59.322;14.502;2023-06-19T09:41:30;19.70;;;13.43;;
32790;SDS011;19143;59.322;14.502;2023-06-19T09:43:57;16.07;;;12.37;;
32790;SDS011;19143;59.322;14.502;2023-06-19T09:46:26;17.27;;;12.20;;
32790;SDS011;19143;59.322;14.502;2023-06-19T09:48:53;14.87;;;11.30;;
32790;SDS011;19143;59.322;14.502;2023-06-19T09:51:25;14.33;;;11.50;;
32790;SDS011;19143;59.322;14.502;2023-06-19T09:53:56;14.13;;;11.03;;
32790;SDS011;19143;59.322;14.502;2023-06-19T09:56:23;13.77;;;11.37;;
32790;SDS011;19143;59.322;14.502;2023-06-19T09:58:54;13.60;;;10.50;;
32790;SDS011;19143;59.322;14.502;2023-06-19T10:01:21;10.73;;;9.63;;
32790;SDS011;19143;59.322;14.502;2023-06-19T10:03:49;11.00;;;9.90;;
32790;SDS011;19143;59.322;14.502;2023-06-19T10:06:16;13.97;;;9.70;;
32790;SDS011;19143;59.322;14.502;2023-06-19T10:08:44;12.93;;;9.77;;
32790;SDS011;19143;59.322;14.502;2023-06-19T10:11:11;9.73;;;8.77;;
32790;SDS011;19143;59.322;14.502;2023-06-19T10:13:40;9.53;;;8.23;;
32790;SDS011;19143;59.322;14.502;2023-06-19T10:16:12;8.47;;;7.67;;
32790;SDS011;19143;59.322;14.502;2023-06-19T10:18:46;7.90;;;6.50;;
32790;SDS011;19143;59.322;14.502;2023-06-19T10:21:15;9.87;;;7.20;;
32790;SDS011;19143;59.322;14.502;2023-06-19T10:23:42;8.07;;;6.63;;
32790;SDS011;19143;59.322;14.502;2023-06-19T10:26:15;8.83;;;7.47;;
32790;SDS011;19143;59.322;14.502;2023-06-19T10:28:45;8.87;;;6.93;;
32790;SDS011;19143;59.322;14.502;2023-06-19T10:31:14;7.80;;;7.07;;
32790;SDS011;19143;59.322;14.502;2023-06-19T10:33:43;8.93;;;6.43;;
32790;SDS011;19143;59.322;14.502;2023-06-19T10:36:13;8.83;;;6.70;;
32790;SDS011;19143;59.322;14.502;2023-06-19T10:38:40;12.80;;;6.43;;
32790;SDS011;19143;59.322;14.502;2023-06-19T10:41:14;8.90;;;6.47;;
32790;SDS011;19143;59.322;14.502;2023-06-19T10:43:40;8.67;;;6.77;;
32790;SDS011;19143;59.322;14.502;2023-06-19T10:46:07;8.47;;;6.57;;
32790;SDS011;19143;59.322;14.502;2023-06-19T10:48:35;7.40;;;6.70;;
32790;SDS011;19143;59.322;14.502;2023-06-19T10:51:03;8.17;;;7.20;;
32790;SDS011;19143;59.322;14.502;2023-06-19T10:53:31;7.53;;;6.57;;
32790;SDS011;19143;59.322;14.502;2023-06-19T10:55:58;9.20;;;7.37;;
32790;SDS011;19143;59.322;14.502;2023-06-19T10:58:25;7.97;;;7.17;;
32790;SDS011;19143;59.322;14.502;2023-06-19T11:00:51;8.17;;;7.37;;
32790;SDS011;19143;59.322;14.502;2023-06-19T11:03:18;7.97;;;7.17;;
32790;SDS011;19143;59.322;14.502;2023-06-19T11:05:46;8.07;;;6.87;;
32790;SDS011;19143;59.322;14.502;2023-06-19T11:08:17;8.53;;;6.77;;
32790;SDS011;19143;59.322;14.502;2023-06-19T11:10:44;10.53;;;6.83;;
32790;SDS011;19143;59.322;14.502;2023-06-19T11:13:13;7.60;;;6.90;;
32790;SDS011;19143;59.322;14.502;2023-06-19T11:15:40;7.30;;;6.60;;
32790;SDS011;19143;59.322;14.502;2023-06-19T11:18:06;7.37;;;6.60;;
32790;SDS011;19143;59.322;14.502;2023-06-19T11:20:42;6.53;;;5.93;;
32790;SDS011;19143;59.322;14.502;2023-06-19T11:23:12;6.83;;;6.23;;
32790;SDS011;19143;59.322;14.502;2023-06-19T11:25:39;7.33;;;6.73;;
32790;SDS011;19143;59.322;14.502;2023-06-19T11:28:10;7.00;;;6.37;;
32790;SDS011;19143;59.322;14.502;2023-06-19T11:30:38;7.30;;;6.60;;
32790;SDS011;19143;59.322;14.502;2023-06-19T11:33:14;7.27;;;6.57;;
32790;SDS011;19143;59.322;14.502;2023-06-19T11:35:41;7.13;;;6.00;;
32790;SDS011;19143;59.322;14.502;2023-06-19T11:38:17;8.57;;;6.57;;
32790;SDS011;19143;59.322;14.502;2023-06-19T11:40:44;7.17;;;6.57;;
32790;SDS011;19143;59.322;14.502;2023-06-19T11:43:12;7.17;;;6.50;;
32790;SDS011;19143;59.322;14.502;2023-06-19T11:45:44;9.23;;;6.60;;
32790;SDS011;19143;59.322;14.502;2023-06-19T11:48:11;7.27;;;6.53;;
32790;SDS011;19143;59.322;14.502;2023-06-19T11:50:38;6.87;;;6.00;;
32790;SDS011;19143;59.322;14.502;2023-06-19T11:53:04;7.37;;;6.40;;
32790;SDS011;19143;59.322;14.502;2023-06-19T11:55:33;7.33;;;6.63;;
32790;SDS011;19143;59.322;14.502;2023-06-19T11:57:59;6.87;;;6.20;;
32790;SDS011;19143;59.322;14.502;2023-06-19T12:00:27;9.10;;;6.37;;
32790;SDS011;19143;59.322;14.502;2023-06-19T12:02:53;7.77;;;6.83;;
32790;SDS011;19143;59.322;14.502;2023-06-19T12:05:22;7.73;;;7.03;;
32790;SDS011;19143;59.322;14.502;2023-06-19T12:07:48;7.33;;;6.73;;
32790;SDS011;19143;59.322;14.502;2023-06-19T12:10:15;7.13;;;6.40;;
32790;SDS011;19143;59.322;14.502;2023-06-19T12:12:43;7.93;;;7.03;;
32790;SDS011;19143;59.322;14.502;2023-06-19T12:15:10;7.83;;;7.03;;
32790;SDS011;19143;59.322;14.502;2023-06-19T12:17:36;7.90;;;6.83;;
32790;SDS011;19143;59.322;14.502;2023-06-19T12:20:03;8.23;;;6.80;;
32790;SDS011;19143;59.322;14.502;2023-06-19T12:22:31;10.50;;;7.20;;
32790;SDS011;19143;59.322;14.502;2023-06-19T12:24:58;8.20;;;7.40;;
32790;SDS011;19143;59.322;14.502;2023-06-19T12:27:24;8.10;;;7.30;;
32790;SDS011;19143;59.322;14.502;2023-06-19T12:29:53;7.57;;;6.87;;
32790;SDS011;19143;59.322;14.502;2023-06-19T12:32:20;7.53;;;6.73;;
32790;SDS011;19143;59.322;14.502;2023-06-19T12:34:47;8.57;;;6.77;;
32790;SDS011;19143;59.322;14.502;2023-06-19T12:37:14;7.23;;;6.30;;
32790;SDS011;19143;59.322;14.502;2023-06-19T12:39:40;8.13;;;6.50;;
32790;SDS011;19143;59.322;14.502;2023-06-19T12:42:07;7.20;;;6.60;;
32790;SDS011;19143;59.322;14.502;2023-06-19T12:44:34;8.00;;;6.83;;
32790;SDS011;19143;59.322;14.502;2023-06-19T12:47:02;7.13;;;6.43;;
32790;SDS011;19143;59.322;14.502;2023-06-19T12:49:30;7.30;;;6.60;;
32790;SDS011;19143;59.322;14.502;2023-06-19T12:51:57;9.00;;;6.73;;
32790;SDS011;19143;59.322;14.502;2023-06-19T12:54:23;14.73;;;6.53;;
32790;SDS011;19143;59.322;14.502;2023-06-19T12:56:50;6.60;;;6.10;;
32790;SDS011;19143;59.322;14.502;2023-06-19T12:59:17;7.27;;;6.57;;
32790;SDS011;19143;59.322;14.502;2023-06-19T13:01:43;6.80;;;6.30;;
32790;SDS011;19143;59.322;14.502;2023-06-19T13:04:12;9.03;;;6.30;;
32790;SDS011;19143;59.322;14.502;2023-06-19T13:06:38;6.67;;;6.17;;
32790;SDS011;19143;59.322;14.502;2023-06-19T13:09:05;8.70;;;6.43;;
32790;SDS011;19143;59.322;14.502;2023-06-19T13:11:33;6.90;;;6.30;;
32790;SDS011;19143;59.322;14.502;2023-06-19T13:14:00;9.70;;;5.90;;
32790;SDS011;19143;59.322;14.502;2023-06-19T13:16:27;6.53;;;6.03;;
32790;SDS011;19143;59.322;14.502;2023-06-19T13:18:53;6.97;;;6.37;;
32790;SDS011;19143;59.322;14.502;2023-06-19T13:21:21;8.53;;;6.33;;
32790;SDS011;19143;59.322;14.502;2023-06-19T13:23:48;6.60;;;6.00;;
32790;SDS011;19143;59.322;14.502;2023-06-19T13:26:15;7.07;;;6.43;;
32790;SDS011;19143;59.322;14.502;2023-06-19T13:28:41;6.67;;;5.97;;
32790;SDS011;19143;59.322;14.502;2023-06-19T13:31:08;6.53;;;6.03;;
32790;SDS011;19143;59.322;14.502;2023-06-19T13:33:34;8.50;;;6.40;;
32790;SDS011;19143;59.322;14.502;2023-06-19T13:36:01;6.47;;;5.97;;
32790;SDS011;19143;59.322;14.502;2023-06-19T13:38:29;5.87;;;5.43;;
32790;SDS011;19143;59.322;14.502;2023-06-19T13:40:56;6.57;;;5.83;;
32790;SDS011;19143;59.322;14.502;2023-06-19T13:43:23;9.80;;;6.60;;
32790;SDS011;19143;59.322;14.502;2023-06-19T13:45:50;7.17;;;6.53;;
32790;SDS011;19143;59.322;14.502;2023-06-19T13:48:17;7.53;;;6.83;;
32790;SDS011;19143;59.322;14.502;2023-06-19T13:50:43;8.30;;;6.30;;
32790;SDS011;19143;59.322;14.502;2023-06-19T13:53:10;7.83;;;6.90;;
32790;SDS011;19143;59.322;14.502;2023-06-19T13:55:38;6.90;;;6.30;;
32790;SDS011;19143;59.322;14.502;2023-06-19T13:58:05;6.80;;;6.20;;
32790;SDS011;19143;59.322;14.502;2023-06-19T14:00:31;17.20;;;7.03;;
32790;SDS011;19143;59.322;14.502;2023-06-19T14:03:00;6.60;;;6.00;;
32790;SDS011;19143;59.322;14.502;2023-06-19T14:05:28;7.33;;;6.63;;
32790;SDS011;19143;59.322;14.502;2023-06-19T14:07:55;6.53;;;6.00;;
32790;SDS011;19143;59.322;14.502;2023-06-19T14:10:21;13.33;;;6.87;;
32790;SDS011;19143;59.322;14.502;2023-06-19T14:12:49;7.10;;;6.50;;
32790;SDS011;19143;59.322;14.502;2023-06-19T14:15:16;6.93;;;6.33;;
32790;SDS011;19143;59.322;14.502;2023-06-19T14:17:42;7.40;;;6.70;;
32790;SDS011;19143;59.322;14.502;2023-06-19T14:20:10;7.00;;;6.30;;